Time;durP1;ratioP1;P1;durP2;ratioP2;P2;SDS_P1;SDS_P2;PMS_P1;PMS_P2;Temp;Humidity;BMP_temperature;BMP_pressure;BME280_temperature;BME280_humidity;BME280_pressure;Samples;Min_cycle;Max_cycle;Signal;HPM_P1;HPM_P2
2023/06/27 00:00:50;;;;;;;1.92;1.80;;;;;;;19.07;63.80;100932.56;6095882;23;20033;-76
2023/06/27 00:03:18;;;;;;;2.90;2.35;;;;;;;19.07;63.99;100929.06;6096257;23;20460;-77
2023/06/27 00:05:46;;;;;;;3.22;2.20;;;;;;;19.07;63.82;100929.91;6096017;23;20404;-76
2023/06/27 00:08:13;;;;;;;2.78;1.92;;;;;;;19.04;63.74;100927.44;6096665;23;20097;-76
2023/06/27 00:10:41;;;;;;;3.22;2.35;;;;;;;19.04;63.91;100919.50;6096518;23;20466;-77
2023/06/27 00:13:15;;;;;;;2.72;2.53;;;;;;;19.03;63.73;100928.34;6096149;23;20464;-76
2023/06/27 00:15:42;;;;;;;3.63;2.10;;;;;;;19.02;64.07;100923.16;6096286;23;20026;-76
2023/06/27 00:18:10;;;;;;;2.55;2.15;;;;;;;19.02;64.13;100929.28;6096298;23;20472;-76
2023/06/27 00:20:37;;;;;;;4.18;2.20;;;;;;;18.98;64.43;100919.81;6096101;23;20396;-76
2023/06/27 00:23:17;;;;;;;2.95;2.15;;;;;;;19.01;64.18;100922.31;6096389;23;20375;-76
2023/06/27 00:25:45;;;;;;;2.78;1.90;;;;;;;18.99;64.19;100929.44;6096114;23;20738;-76
2023/06/27 00:28:13;;;;;;;2.03;1.65;;;;;;;18.95;64.43;100922.59;6096620;23;20018;-77
2023/06/27 00:30:40;;;;;;;1.98;1.83;;;;;;;18.92;64.65;100922.75;6096283;23;20093;-77
2023/06/27 00:33:09;;;;;;;2.70;2.50;;;;;;;18.98;64.70;100932.16;6095390;23;20082;-77
2023/06/27 00:35:36;;;;;;;2.25;2.05;;;;;;;18.97;64.46;100925.16;6095946;23;20046;-77
2023/06/27 00:38:03;;;;;;;2.00;1.90;;;;;;;18.96;64.82;100921.66;6096266;23;20475;-77
2023/06/27 00:40:30;;;;;;;3.17;2.03;;;;;;;18.96;64.73;100924.31;6096076;23;20018;-77
2023/06/27 00:42:58;;;;;;;2.58;2.05;;;;;;;18.95;64.59;100925.22;6095512;23;20022;-76
2023/06/27 00:45:25;;;;;;;2.15;1.95;;;;;;;18.94;64.88;100923.53;6095021;23;20566;-77
2023/06/27 00:47:53;;;;;;;6.88;2.00;;;;;;;18.93;64.82;100929.78;6095342;23;20033;-77
2023/06/27 00:50:23;;;;;;;2.40;2.20;;;;;;;18.93;64.46;100934.22;6095770;23;20026;-76
2023/06/27 00:52:51;;;;;;;3.50;2.22;;;;;;;18.92;64.58;100935.97;6096235;23;20026;-77
2023/06/27 00:55:19;;;;;;;1.85;1.75;;;;;;;18.92;64.70;100935.13;6095112;23;20019;-76
2023/06/27 00:57:47;;;;;;;3.03;2.28;;;;;;;18.91;64.65;100934.28;6096011;23;20022;-77
2023/06/27 01:00:17;;;;;;;2.00;1.90;;;;;;;18.89;64.85;100928.19;6095960;23;20022;-76
2023/06/27 01:02:45;;;;;;;2.28;1.75;;;;;;;18.90;64.53;100929.03;6095520;23;20061;-77
2023/06/27 01:05:13;;;;;;;2.47;1.83;;;;;;;18.86;64.73;100920.41;6096136;23;20069;-77
2023/06/27 01:07:47;;;;;;;1.90;1.80;;;;;;;18.86;64.70;100931.84;6095475;23;20033;-77
2023/06/27 01:10:20;;;;;;;2.28;2.08;;;;;;;18.85;64.66;100927.50;6096079;23;20033;-77
2023/06/27 01:12:56;;;;;;;1.85;1.67;;;;;;;18.84;64.67;100925.81;6095619;23;20024;-76
2023/06/27 01:15:24;;;;;;;2.72;1.73;;;;;;;18.83;64.83;100928.50;6095959;23;20077;-77
2023/06/27 01:17:52;;;;;;;2.40;2.15;;;;;;;18.80;64.74;100920.72;6095906;23;20022;-76
2023/06/27 01:20:20;;;;;;;2.22;2.05;;;;;;;18.80;64.75;100916.28;6095937;23;20034;-77
2023/06/27 01:22:59;;;;;;;5.47;2.28;;;;;;;18.79;64.55;100917.22;6095723;23;20019;-77
2023/06/27 01:25:27;;;;;;;2.95;2.33;;;;;;;18.77;64.64;100912.94;6095858;23;20022;-76
2023/06/27 01:27:55;;;;;;;2.22;2.00;;;;;;;18.75;64.76;100912.16;6094594;23;20053;-76
2023/06/27 01:30:22;;;;;;;6.57;2.03;;;;;;;18.69;64.94;100897.41;6095713;23;20081;-77
2023/06/27 01:32:55;;;;;;;2.17;1.85;;;;;;;18.71;64.96;100902.66;6095681;23;20344;-76
2023/06/27 01:35:29;;;;;;;2.00;1.90;;;;;;;18.68;65.07;100902.81;6095686;23;20023;-76
2023/06/27 01:37:59;;;;;;;1.70;1.60;;;;;;;18.65;65.47;100899.38;6095184;23;20026;-77
2023/06/27 01:40:30;;;;;;;3.72;1.80;;;;;;;18.55;65.32;100886.66;6095825;23;20019;-76
2023/06/27 01:43:00;;;;;;;1.70;1.60;;;;;;;18.63;65.69;100901.22;6095603;23;20022;-77
2023/06/27 01:45:28;;;;;;;2.55;1.90;;;;;;;18.62;65.52;100888.94;6095463;23;20023;-76
2023/06/27 01:47:57;;;;;;;2.45;2.20;;;;;;;18.60;65.53;100890.78;6095428;23;20029;-76
2023/06/27 01:50:26;;;;;;;1.90;1.80;;;;;;;18.63;65.21;100895.94;6094879;23;20022;-77
2023/06/27 01:52:53;;;;;;;2.38;2.17;;;;;;;18.60;65.92;100890.78;6095207;23;20026;-79
2023/06/27 01:55:20;;;;;;;2.30;2.10;;;;;;;18.61;65.60;100889.88;6095039;23;20026;-76
2023/06/27 01:57:49;;;;;;;2.17;1.85;;;;;;;18.60;66.33;100885.50;6095461;23;20019;-77
2023/06/27 02:00:16;;;;;;;3.42;2.10;;;;;;;18.62;66.44;100893.38;6095339;23;20030;-77
2023/06/27 02:02:43;;;;;;;2.05;1.85;;;;;;;18.61;66.40;100881.06;6094805;23;20027;-77
2023/06/27 02:05:10;;;;;;;2.47;2.28;;;;;;;18.59;66.55;100877.66;6095272;23;20026;-77
2023/06/27 02:07:37;;;;;;;2.28;2.03;;;;;;;18.61;66.18;100874.00;6095507;23;20448;-77
2023/06/27 02:10:04;;;;;;;1.65;1.55;;;;;;;18.61;66.29;100879.31;6094832;23;20026;-77
2023/06/27 02:12:31;;;;;;;1.92;1.77;;;;;;;18.61;66.32;100879.31;6095399;23;20023;-76
2023/06/27 02:14:59;;;;;;;2.00;1.80;;;;;;;18.60;66.29;100869.63;6095062;23;20029;-77
2023/06/27 02:17:26;;;;;;;2.42;2.00;;;;;;;18.60;66.02;100869.63;6095136;23;20022;-77
2023/06/27 02:19:53;;;;;;;2.22;2.03;;;;;;;18.60;66.16;100866.97;6095538;23;20019;-77
2023/06/27 02:22:20;;;;;;;2.10;1.70;;;;;;;18.58;66.23;100874.13;6095313;23;20379;-77
2023/06/27 02:24:46;;;;;;;1.80;1.70;;;;;;;18.53;66.03;100851.53;6094922;23;20018;-71
2023/06/27 02:27:14;;;;;;;2.47;1.85;;;;;;;18.50;66.45;100851.66;6093868;23;20029;-71
2023/06/27 02:29:40;;;;;;;1.77;1.67;;;;;;;18.52;66.25;100855.94;6094029;23;20101;-71
2023/06/27 02:32:09;;;;;;;4.13;2.22;;;;;;;18.53;66.31;100855.00;6094267;23;20026;-71
2023/06/27 02:34:36;;;;;;;2.08;1.92;;;;;;;18.48;66.15;100857.03;6093902;23;20023;-71
2023/06/27 02:37:03;;;;;;;3.97;1.83;;;;;;;18.49;66.56;100861.38;6094114;23;20348;-71
2023/06/27 02:39:30;;;;;;;1.60;1.50;;;;;;;18.47;66.31;100859.75;6093988;23;20033;-71
2023/06/27 02:41:57;;;;;;;2.53;2.33;;;;;;;18.46;66.44;100858.03;6094066;23;20026;-71
2023/06/27 02:44:23;;;;;;;2.65;1.67;;;;;;;18.44;66.64;100858.09;6093168;23;20030;-71
2023/06/27 02:46:50;;;;;;;1.90;1.77;;;;;;;18.43;66.42;100856.41;6093854;23;20030;-71
2023/06/27 02:49:21;;;;;;;2.00;1.85;;;;;;;18.36;66.62;100839.13;6093822;23;20023;-71
2023/06/27 02:51:49;;;;;;;2.38;2.28;;;;;;;18.40;66.68;100848.63;6093952;23;20360;-71
2023/06/27 02:54:16;;;;;;;1.80;1.70;;;;;;;18.39;66.92;100844.28;6093530;23;20029;-71
2023/06/27 02:56:45;;;;;;;2.45;2.00;;;;;;;18.38;66.92;100847.81;6093571;23;20023;-71
2023/06/27 02:59:12;;;;;;;2.28;2.08;;;;;;;18.33;66.78;100837.50;6093580;23;20029;-71
2023/06/27 03:01:38;;;;;;;1.80;1.70;;;;;;;18.37;66.90;100851.41;6093636;23;20670;-71
2023/06/27 03:04:05;;;;;;;2.42;1.90;;;;;;;18.34;67.17;100841.00;6094108;23;20034;-71
2023/06/27 03:06:36;;;;;;;1.70;1.60;;;;;;;18.29;67.00;100840.34;6093838;23;20022;-71
2023/06/27 03:09:03;;;;;;;1.98;1.88;;;;;;;18.35;67.25;100842.69;6093706;23;20030;-71
2023/06/27 03:11:30;;;;;;;2.10;1.75;;;;;;;18.36;67.26;100852.38;6093562;23;20034;-71
2023/06/27 03:13:57;;;;;;;3.92;2.00;;;;;;;18.36;67.60;100849.72;6093880;23;20023;-71
2023/06/27 03:16:23;;;;;;;2.20;1.95;;;;;;;18.35;67.60;100837.41;6093552;23;20033;-71
2023/06/27 03:18:50;;;;;;;2.55;1.83;;;;;;;18.37;67.63;100843.47;6093947;23;20026;-70
2023/06/27 03:21:17;;;;;;;2.20;2.00;;;;;;;18.37;67.84;100833.75;6093194;23;20515;-70
2023/06/27 03:23:45;;;;;;;1.73;1.63;;;;;;;18.39;68.04;100823.97;6094017;23;20019;-71
2023/06/27 03:26:12;;;;;;;2.35;2.17;;;;;;;18.41;68.06;100824.75;6093204;23;20022;-71
2023/06/27 03:28:40;;;;;;;3.50;1.85;;;;;;;18.38;68.19;100816.09;6093555;23;20019;-71
2023/06/27 03:31:07;;;;;;;1.92;1.83;;;;;;;18.44;67.89;100813.13;6093459;23;20033;-71
2023/06/27 03:33:33;;;;;;;2.33;1.92;;;;;;;18.47;68.10;100820.06;6093497;23;20027;-71
2023/06/27 03:36:00;;;;;;;2.65;2.22;;;;;;;18.48;68.25;100812.06;6093470;23;20026;-71
2023/06/27 03:38:27;;;;;;;2.60;2.40;;;;;;;18.48;68.65;100811.22;6094049;23;20029;-71
2023/06/27 03:40:55;;;;;;;3.08;2.30;;;;;;;18.54;68.80;100811.75;6093102;23;20019;-71
2023/06/27 03:43:22;;;;;;;3.70;2.10;;;;;;;18.57;68.80;100810.72;6093620;23;20022;-71
2023/06/27 03:45:49;;;;;;;2.42;2.22;;;;;;;18.60;69.06;100815.88;6093912;23;20018;-71
2023/06/27 03:48:16;;;;;;;2.53;2.33;;;;;;;18.57;69.08;100798.34;6093435;23;20452;-71
2023/06/27 03:50:43;;;;;;;3.28;2.85;;;;;;;18.68;68.91;100815.47;6093340;23;20032;-71
2023/06/27 03:53:09;;;;;;;3.05;2.17;;;;;;;18.72;68.98;100809.09;6093340;23;20031;-71
2023/06/27 03:55:40;;;;;;;2.00;1.88;;;;;;;18.76;69.16;100806.25;6093776;23;20097;-71
2023/06/27 03:58:08;;;;;;;3.20;2.22;;;;;;;18.82;69.26;100800.63;6093769;23;20019;-72
2023/06/27 04:00:35;;;;;;;2.58;2.38;;;;;;;18.88;69.16;100802.09;6093018;23;20018;-71
2023/06/27 04:03:02;;;;;;;2.28;2.00;;;;;;;18.94;68.95;100809.72;6093714;23;20023;-72
2023/06/27 04:05:29;;;;;;;3.67;2.03;;;;;;;18.98;68.72;100805.97;6093148;23;20035;-71
2023/06/27 04:07:56;;;;;;;2.55;2.35;;;;;;;19.06;68.67;100802.91;6093514;23;20054;-71
2023/06/27 04:10:23;;;;;;;3.92;2.35;;;;;;;19.12;68.46;100807.00;6093606;23;20022;-71
2023/06/27 04:12:50;;;;;;;3.03;2.70;;;;;;;19.18;68.55;100806.69;6093926;23;20026;-71
2023/06/27 04:15:18;;;;;;;2.40;2.20;;;;;;;19.24;68.39;100809.00;6093695;23;20022;-72
2023/06/27 04:17:45;;;;;;;2.63;2.42;;;;;;;19.24;68.60;100795.75;6093689;23;20329;-71
2023/06/27 04:20:13;;;;;;;3.08;2.85;;;;;;;19.35;68.59;100801.31;6093519;23;20070;-72
2023/06/27 04:22:40;;;;;;;2.58;2.25;;;;;;;19.41;68.49;100801.00;6093262;23;20033;-72
2023/06/27 04:25:10;;;;;;;3.13;2.00;;;;;;;19.42;68.06;100784.16;6093584;23;20024;-72
2023/06/27 04:27:37;;;;;;;4.70;2.95;;;;;;;19.36;68.30;100770.41;6093497;23;20023;-72
2023/06/27 04:30:05;;;;;;;3.38;2.55;;;;;;;19.62;68.42;100800.75;6093449;23;20027;-72
2023/06/27 04:32:34;;;;;;;2.85;2.50;;;;;;;19.70;68.21;100787.97;6093192;23;20035;-72
2023/06/27 04:35:01;;;;;;;2.78;2.60;;;;;;;19.76;68.02;100787.63;6093264;23;20050;-72
2023/06/27 04:37:29;;;;;;;2.47;2.28;;;;;;;19.87;67.35;100784.38;6093591;23;20026;-72
2023/06/27 04:39:55;;;;;;;10.55;3.28;;;;;;;19.94;67.50;100791.84;6095270;23;20042;-72
2023/06/27 04:42:22;;;;;;;3.55;2.45;;;;;;;20.03;67.16;100790.47;6095250;23;20026;-72
2023/06/27 04:44:49;;;;;;;2.92;2.72;;;;;;;20.12;66.96;100789.09;6095157;23;20348;-73
2023/06/27 04:47:16;;;;;;;3.33;2.80;;;;;;;20.21;66.53;100794.72;6095046;23;20030;-73
2023/06/27 04:49:44;;;;;;;2.75;2.53;;;;;;;20.31;66.26;100789.72;6095008;23;20064;-72
2023/06/27 04:52:11;;;;;;;2.72;2.20;;;;;;;20.35;65.88;100775.34;6094903;23;20042;-72
2023/06/27 04:54:38;;;;;;;2.58;2.05;;;;;;;20.48;65.51;100780.75;6094618;23;20022;-72
2023/06/27 04:57:05;;;;;;;3.20;2.67;;;;;;;20.60;65.26;100781.84;6094586;23;20034;-72
2023/06/27 04:59:32;;;;;;;2.80;2.25;;;;;;;20.73;65.10;100774.88;6095109;23;20019;-71
2023/06/27 05:01:59;;;;;;;2.30;1.95;;;;;;;20.85;64.60;100779.41;6094654;23;20028;-72
2023/06/27 05:04:26;;;;;;;5.10;1.85;;;;;;;20.98;64.31;100768.06;6094984;23;20430;-72
2023/06/27 05:06:54;;;;;;;1.92;1.83;;;;;;;21.08;63.83;100763.88;6094454;23;20022;-72
2023/06/27 05:09:21;;;;;;;2.97;1.92;;;;;;;21.10;63.22;100761.97;6095148;23;20029;-72
2023/06/27 05:11:49;;;;;;;1.17;1.05;;;;;;;21.32;62.65;100772.97;6094868;23;20069;-72
2023/06/27 05:14:16;;;;;;;3.35;1.33;;;;;;;21.44;61.86;100767.84;6095009;23;20022;-72
2023/06/27 05:16:43;;;;;;;1.90;1.30;;;;;;;21.58;60.93;100772.28;6094798;23;20348;-72
2023/06/27 05:19:09;;;;;;;5.45;1.42;;;;;;;21.71;60.63;100770.50;6094525;23;20460;-72
2023/06/27 05:21:37;;;;;;;1.10;1.00;;;;;;;21.84;59.97;100767.91;6094793;23;20030;-72
2023/06/27 05:24:06;;;;;;;2.22;1.10;;;;;;;21.93;59.45;100767.31;6094824;23;20033;-71
2023/06/27 05:26:33;;;;;;;2.78;1.10;;;;;;;22.01;59.11;100759.69;6094623;23;20026;-71
2023/06/27 05:29:00;;;;;;;0.90;0.90;;;;;;;22.10;58.70;100755.53;6095065;23;20026;-72
2023/06/27 05:31:27;;;;;;;1.02;0.80;;;;;;;22.18;58.13;100754.09;6094910;23;20038;-72
2023/06/27 05:33:54;;;;;;;1.73;1.00;;;;;;;22.37;57.57;100772.34;6094441;23;20034;-71
2023/06/27 05:36:21;;;;;;;0.75;0.65;;;;;;;22.47;57.48;100767.25;6094599;23;20029;-72
2023/06/27 05:38:49;;;;;;;0.95;0.85;;;;;;;22.57;56.92;100768.31;6094691;23;20029;-71
2023/06/27 05:41:18;;;;;;;1.00;0.80;;;;;;;22.65;56.39;100762.44;6094832;23;20019;-72
2023/06/27 05:43:45;;;;;;;1.02;0.65;;;;;;;22.65;55.84;100760.66;6094138;23;20022;-72
2023/06/27 05:46:12;;;;;;;0.60;0.60;;;;;;;22.72;55.46;100765.56;6094637;23;20081;-72
2023/06/27 05:48:39;;;;;;;1.63;0.60;;;;;;;22.79;55.29;100774.81;6094302;23;20019;-71
2023/06/27 05:51:06;;;;;;;2.38;0.57;;;;;;;22.79;55.07;100766.81;6094569;23;20029;-71
2023/06/27 05:53:33;;;;;;;0.65;0.60;;;;;;;22.83;54.73;100773.66;6094200;23;20023;-71
2023/06/27 05:56:00;;;;;;;2.05;0.60;;;;;;;22.95;54.29;100778.16;6094583;23;20030;-71
2023/06/27 05:58:29;;;;;;;0.52;0.52;;;;;;;23.02;53.42;100782.06;6094318;23;20023;-71
2023/06/27 06:00:55;;;;;;;3.35;0.90;;;;;;;23.05;53.31;100779.22;6094193;23;20030;-71
2023/06/27 06:03:25;;;;;;;2.38;0.60;;;;;;;23.07;53.26;100777.28;6094260;23;20026;-72
2023/06/27 06:05:52;;;;;;;1.42;0.70;;;;;;;23.16;52.81;100785.56;6094698;23;20023;-72
2023/06/27 06:08:20;;;;;;;2.05;0.80;;;;;;;23.17;52.78;100779.28;6094032;23;20026;-71
2023/06/27 06:10:50;;;;;;;0.93;0.77;;;;;;;23.16;53.01;100782.91;6094026;23;20018;-71
2023/06/27 06:13:16;;;;;;;1.02;0.73;;;;;;;23.19;52.81;100790.69;6094369;23;20085;-71
2023/06/27 06:15:45;;;;;;;0.68;0.50;;;;;;;23.20;52.73;100787.09;6094008;23;20023;-71
2023/06/27 06:18:12;;;;;;;0.55;0.55;;;;;;;23.23;52.64;100786.84;6093791;23;20034;-71
2023/06/27 06:20:39;;;;;;;0.60;0.60;;;;;;;23.25;52.07;100784.91;6093965;23;20027;-72
2023/06/27 06:23:05;;;;;;;1.15;0.82;;;;;;;23.25;52.29;100783.13;6094063;23;20026;-71
2023/06/27 06:25:32;;;;;;;0.70;0.50;;;;;;;23.25;52.33;100785.78;6094018;23;20033;-71
2023/06/27 06:27:59;;;;;;;0.82;0.65;;;;;;;23.24;52.22;100788.56;6093919;23;20022;-72
2023/06/27 06:30:26;;;;;;;0.73;0.60;;;;;;;23.26;52.32;100786.63;6093915;23;20035;-71
2023/06/27 06:32:54;;;;;;;0.70;0.52;;;;;;;23.26;52.25;100786.63;6093718;23;20026;-72
2023/06/27 06:35:21;;;;;;;0.93;0.60;;;;;;;23.27;52.17;100799.00;6093821;23;20034;-71
2023/06/27 06:37:48;;;;;;;1.20;0.60;;;;;;;23.27;51.61;100793.66;6094035;23;20026;-72
2023/06/27 06:40:15;;;;;;;0.82;0.60;;;;;;;23.24;51.78;100793.88;6094365;23;20018;-71
2023/06/27 06:42:41;;;;;;;1.15;0.50;;;;;;;23.14;51.68;100783.03;6093999;23;20037;-71
2023/06/27 06:45:09;;;;;;;0.73;0.50;;;;;;;23.18;51.45;100794.31;6093574;23;20033;-71
2023/06/27 06:47:36;;;;;;;0.65;0.60;;;;;;;23.15;51.40;100791.88;6093146;23;20038;-72
2023/06/27 06:50:04;;;;;;;0.60;0.50;;;;;;;;;;6092983;23;20027;-72
2023/06/27 06:52:31;;;;;;;1.02;0.88;;;;;;;23.13;51.89;100790.16;6093743;23;20026;-71
2023/06/27 06:54:58;;;;;;;0.57;0.50;;;;;;;23.15;51.53;100794.53;6093847;23;20030;-72
2023/06/27 06:57:25;;;;;;;1.23;0.63;;;;;;;;;;6093313;23;20019;-71
2023/06/27 06:59:52;;;;;;;5.15;0.57;;;;;;;23.13;51.78;100782.16;6093607;23;20185;-71
2023/06/27 07:02:18;;;;;;;2.45;0.90;;;;;;;23.19;51.68;100791.53;6093162;23;20022;-71
2023/06/27 07:04:45;;;;;;;1.90;0.50;;;;;;;23.21;51.65;100788.78;6094085;23;20019;-71
2023/06/27 07:07:13;;;;;;;0.68;0.57;;;;;;;23.26;51.41;100783.97;6093573;23;20109;-72
2023/06/27 07:09:40;;;;;;;0.80;0.52;;;;;;;23.30;50.80;100788.94;6093824;23;20034;-72
2023/06/27 07:12:08;;;;;;;0.73;0.50;;;;;;;23.35;50.38;100791.31;6093605;23;20026;-71
2023/06/27 07:14:35;;;;;;;0.50;0.50;;;;;;;23.40;50.43;100789.16;6093491;23;20027;-71
2023/06/27 07:17:01;;;;;;;0.80;0.50;;;;;;;23.48;49.49;100780.59;6093581;23;20033;-71
2023/06/27 07:19:28;;;;;;;0.60;0.50;;;;;;;23.51;49.25;100781.25;6093749;23;20038;-71
2023/06/27 07:21:55;;;;;;;0.52;0.50;;;;;;;23.66;49.69;100781.94;6093874;23;20029;-71
2023/06/27 07:24:23;;;;;;;2.38;0.52;;;;;;;23.77;49.20;100775.84;6092914;23;20026;-71
2023/06/27 07:26:51;;;;;;;3.40;0.70;;;;;;;23.89;49.19;100780.25;6093741;23;20019;-71
2023/06/27 07:29:18;;;;;;;1.10;0.55;;;;;;;23.96;49.71;100778.84;6093291;23;20019;-71
2023/06/27 07:31:45;;;;;;;1.13;0.68;;;;;;;24.03;49.67;100776.56;6093995;23;20019;-72
2023/06/27 07:34:12;;;;;;;1.08;0.73;;;;;;;24.14;48.44;100781.09;6093708;23;20448;-72
2023/06/27 07:36:39;;;;;;;1.02;0.80;;;;;;;24.25;49.23;100781.16;6093578;23;20022;-71
2023/06/27 07:39:06;;;;;;;1.25;0.60;;;;;;;24.32;48.04;100778.84;6093435;23;20086;-72
2023/06/27 07:41:34;;;;;;;1.33;0.65;;;;;;;24.33;47.36;100776.06;6093859;23;20023;-72
2023/06/27 07:44:01;;;;;;;0.80;0.57;;;;;;;24.35;47.49;100776.78;6093591;23;20352;-72
2023/06/27 07:46:29;;;;;;;0.75;0.50;;;;;;;24.38;47.50;100776.56;6094018;23;20023;-72
2023/06/27 07:48:58;;;;;;;1.98;0.60;;;;;;;24.39;47.54;100772.94;6093405;23;20828;-72
2023/06/27 07:51:25;;;;;;;1.20;0.50;;;;;;;24.41;47.03;100770.13;6093709;23;20053;-72
2023/06/27 07:53:52;;;;;;;2.60;0.60;;;;;;;24.42;47.06;100770.03;6093466;23;20030;-71
2023/06/27 07:56:19;;;;;;;1.05;0.65;;;;;;;24.43;47.52;100768.25;6094081;23;20030;-72
2023/06/27 07:58:48;;;;;;;1.35;0.70;;;;;;;24.40;47.40;100763.94;6093349;23;20022;-72
2023/06/27 08:01:15;;;;;;;1.17;0.82;;;;;;;24.44;47.47;100765.44;6094013;23;20022;-71
2023/06/27 08:03:41;;;;;;;1.42;0.80;;;;;;;24.48;47.16;100762.53;6093271;23;20022;-72
2023/06/27 08:06:08;;;;;;;0.80;0.70;;;;;;;24.42;47.20;100762.03;6093944;23;20045;-72
2023/06/27 08:08:36;;;;;;;1.40;0.60;;;;;;;24.45;46.59;100772.50;6093722;23;20022;-72
2023/06/27 08:11:03;;;;;;;1.23;0.60;;;;;;;24.47;46.28;100764.34;6094619;23;20026;-72
2023/06/27 08:13:30;;;;;;;3.08;0.65;;;;;;;24.46;46.17;100755.50;6095672;23;20034;-71
2023/06/27 08:15:58;;;;;;;1.00;0.77;;;;;;;24.50;46.62;100763.25;6095248;23;20034;-73
2023/06/27 08:18:25;;;;;;;0.80;0.70;;;;;;;24.49;46.49;100767.75;6095199;23;20023;-71
2023/06/27 08:20:52;;;;;;;2.25;0.90;;;;;;;24.50;46.59;100763.25;6095457;23;20026;-71
2023/06/27 08:23:19;;;;;;;0.65;0.60;;;;;;;24.51;46.61;100760.50;6095217;23;20033;-71
2023/06/27 08:25:46;;;;;;;0.82;0.82;;;;;;;24.53;46.43;100763.03;6095574;23;20027;-72
2023/06/27 08:28:12;;;;;;;1.83;0.82;;;;;;;24.55;46.41;100755.75;6094911;23;20023;-72
2023/06/27 08:30:41;;;;;;;0.70;0.70;;;;;;;24.58;45.79;100755.50;6095020;23;20023;-72
2023/06/27 08:33:10;;;;;;;2.22;0.77;;;;;;;24.61;45.44;100750.78;6094867;23;20026;-72
2023/06/27 08:35:37;;;;;;;1.05;0.55;;;;;;;24.57;45.90;100732.47;6095057;23;20018;-72
2023/06/27 08:38:04;;;;;;;1.05;0.95;;;;;;;24.69;45.46;100747.53;6094740;23;20106;-72
2023/06/27 08:40:35;;;;;;;1.75;0.75;;;;;;;24.74;45.53;100756.03;6095193;23;20435;-72
2023/06/27 08:43:03;;;;;;;1.45;0.90;;;;;;;24.74;46.11;100753.34;6095369;23;20459;-72
2023/06/27 08:45:30;;;;;;;5.65;1.10;;;;;;;24.69;45.92;100727.00;6095576;23;20022;-72
2023/06/27 08:47:57;;;;;;;1.00;0.80;;;;;;;24.85;45.66;100749.84;6095086;23;20029;-72
2023/06/27 08:50:29;;;;;;;4.72;0.70;;;;;;;24.83;44.95;100755.31;6094567;23;20022;-72
2023/06/27 08:52:58;;;;;;;1.85;0.80;;;;;;;24.82;45.15;100758.94;6095130;23;20456;-72
2023/06/27 08:55:35;;;;;;;3.53;0.60;;;;;;;24.81;44.32;100757.22;6094778;23;20056;-72
2023/06/27 08:58:04;;;;;;;0.70;0.70;;;;;;;24.86;44.66;100751.53;6094819;23;20023;-72
2023/06/27 09:00:31;;;;;;;1.05;0.65;;;;;;;24.88;45.35;100758.47;6094712;23;20027;-72
2023/06/27 09:02:58;;;;;;;2.45;0.65;;;;;;;24.91;44.63;100760.06;6094734;23;20026;-72
2023/06/27 09:05:27;;;;;;;1.45;1.23;;;;;;;24.95;44.50;100752.63;6094701;23;20022;-72
2023/06/27 09:07:54;;;;;;;1.10;0.80;;;;;;;24.94;44.35;100749.13;6094925;23;20491;-72
2023/06/27 09:10:21;;;;;;;1.48;0.73;;;;;;;24.97;44.65;100746.19;6094554;23;20486;-73
2023/06/27 09:12:51;;;;;;;1.25;0.70;;;;;;;25.02;45.33;100753.88;6094841;23;20042;-72
2023/06/27 09:15:18;;;;;;;1.23;0.90;;;;;;;25.07;44.64;100757.88;6094893;23;20132;-72
2023/06/27 09:17:45;;;;;;;1.15;0.70;;;;;;;25.10;44.77;100762.09;6094880;23;20022;-72
2023/06/27 09:20:16;;;;;;;2.38;0.60;;;;;;;25.13;44.32;100756.50;6094590;23;20030;-70
2023/06/27 09:22:46;;;;;;;0.55;0.55;;;;;;;25.11;44.08;100758.47;6093853;23;20034;-73
2023/06/27 09:25:15;;;;;;;2.13;0.65;;;;;;;25.13;43.92;100757.38;6095044;23;20022;-72
2023/06/27 09:27:42;;;;;;;1.25;0.70;;;;;;;25.10;44.07;100752.28;6094311;23;20341;-72
2023/06/27 09:30:11;;;;;;;0.70;0.70;;;;;;;25.07;43.67;100746.28;6094937;23;20041;-72
2023/06/27 09:32:55;;;;;;;1.27;0.63;;;;;;;25.16;44.33;100763.47;6094767;23;20026;-72
2023/06/27 09:35:23;;;;;;;1.77;0.68;;;;;;;25.13;44.45;100751.16;6094825;23;20026;-72
2023/06/27 09:37:52;;;;;;;0.70;0.70;;;;;;;25.16;43.73;100756.31;6094182;23;20095;-72
2023/06/27 09:40:20;;;;;;;1.20;0.63;;;;;;;25.17;43.60;100749.97;6094960;23;20019;-72
2023/06/27 09:42:54;;;;;;;1.88;0.60;;;;;;;25.22;43.95;100757.66;6094564;23;20027;-72
2023/06/27 09:45:23;;;;;;;0.93;0.70;;;;;;;25.19;44.02;100769.44;6094474;23;20097;-72
2023/06/27 09:47:51;;;;;;;1.38;0.60;;;;;;;25.11;43.29;100748.63;6094517;23;20245;-72
2023/06/27 09:50:18;;;;;;;1.52;0.52;;;;;;;25.16;43.13;100767.00;6094508;23;20025;-72
2023/06/27 09:52:53;;;;;;;1.35;0.63;;;;;;;25.16;43.55;100756.31;6094656;23;20337;-72
2023/06/27 09:55:20;;;;;;;1.40;0.70;;;;;;;25.15;42.95;100757.25;6093973;23;20034;-72
2023/06/27 09:57:48;;;;;;;2.65;0.80;;;;;;;25.17;42.91;100763.34;6094312;23;20026;-71
2023/06/27 10:00:18;;;;;;;1.15;0.50;;;;;;;25.15;42.89;100761.75;6094236;23;20022;-72
2023/06/27 10:02:48;;;;;;;0.60;0.50;;;;;;;25.08;42.96;100758.72;6094193;23;20029;-72
2023/06/27 10:05:15;;;;;;;0.80;0.70;;;;;;;25.11;42.98;100767.31;6093815;23;20471;-72
2023/06/27 10:07:43;;;;;;;3.70;1.35;;;;;;;25.12;43.15;100765.50;6094047;23;20026;-71
2023/06/27 10:10:12;;;;;;;0.73;0.60;;;;;;;25.09;43.27;100763.06;6093867;23;20026;-72
2023/06/27 10:12:39;;;;;;;1.58;0.77;;;;;;;25.12;42.95;100765.50;6094477;23;20019;-72
2023/06/27 10:15:08;;;;;;;1.05;0.77;;;;;;;25.12;42.94;100766.34;6093734;23;20022;-72
2023/06/27 10:17:35;;;;;;;1.52;0.60;;;;;;;25.13;42.98;100767.19;6094267;23;20027;-72
2023/06/27 10:20:06;;;;;;;2.50;0.60;;;;;;;25.13;43.00;100772.53;6093553;23;20023;-72
2023/06/27 10:22:35;;;;;;;0.80;0.70;;;;;;;25.09;42.95;100771.09;6094248;23;20022;-72
2023/06/27 10:25:05;;;;;;;1.15;0.70;;;;;;;25.01;43.18;100763.69;6093803;23;20026;-72
2023/06/27 10:27:36;;;;;;;1.08;0.73;;;;;;;25.01;42.75;100771.69;6093218;23;20033;-72
2023/06/27 10:30:13;;;;;;;1.20;0.80;;;;;;;25.01;43.25;100770.84;6094165;23;20019;-72
2023/06/27 10:32:43;;;;;;;0.80;0.80;;;;;;;24.82;42.97;100742.06;6093680;23;20468;-72
2023/06/27 10:35:12;;;;;;;0.63;0.63;;;;;;;24.99;42.75;100772.78;6094101;23;20084;-72
2023/06/27 10:37:42;;;;;;;1.00;0.77;;;;;;;24.94;43.11;100761.63;6094106;23;20093;-72
2023/06/27 10:40:11;;;;;;;1.10;0.73;;;;;;;24.91;42.68;100771.56;6093685;23;20081;-72
2023/06/27 10:42:42;;;;;;;0.98;0.85;;;;;;;24.84;43.00;100775.69;6093989;23;20026;-72
2023/06/27 10:45:10;;;;;;;1.77;0.70;;;;;;;24.78;42.85;100773.50;6093678;23;20026;-72
2023/06/27 10:47:41;;;;;;;2.50;0.80;;;;;;;24.68;42.94;100768.03;6093755;23;20022;-72
2023/06/27 10:50:11;;;;;;;3.33;0.70;;;;;;;24.68;42.79;100775.22;6094224;23;20022;-72
2023/06/27 10:52:39;;;;;;;1.92;0.63;;;;;;;24.62;42.57;100768.53;6093565;23;20023;-72
2023/06/27 10:55:29;;;;;;;2.00;0.80;;;;;;;24.61;43.29;100772.16;6093505;23;20060;-72
2023/06/27 10:58:06;;;;;;;0.90;0.60;;;;;;;24.57;43.87;100769.84;6087194;23;20019;-72
2023/06/27 11:00:34;;;;;;;0.90;0.73;;;;;;;24.55;43.75;100774.44;6093866;23;20097;-71
2023/06/27 11:03:04;;;;;;;0.82;0.80;;;;;;;24.52;43.29;100778.19;6093591;23;20073;-72
2023/06/27 11:05:45;;;;;;;0.90;0.70;;;;;;;24.48;43.47;100767.88;6093918;23;20027;-71
2023/06/27 11:08:15;;;;;;;1.25;0.80;;;;;;;24.39;43.91;100766.72;6093622;23;20355;-71
2023/06/27 11:10:51;;;;;;;1.10;0.60;;;;;;;24.39;43.34;100767.59;6093902;23;20026;-71
2023/06/27 11:13:21;;;;;;;0.93;0.68;;;;;;;24.38;43.41;100757.88;6093635;23;20030;-71
2023/06/27 11:15:49;;;;;;;1.23;1.00;;;;;;;24.39;43.12;100761.38;6093947;23;20077;-72
2023/06/27 11:18:17;;;;;;;1.10;0.70;;;;;;;24.37;43.32;100766.84;6093789;23;20022;-71
2023/06/27 11:20:44;;;;;;;1.20;0.60;;;;;;;24.40;43.32;100765.78;6093836;23;20023;-71
2023/06/27 11:23:13;;;;;;;1.35;0.80;;;;;;;24.39;42.95;100769.38;6093360;23;20026;-71
2023/06/27 11:25:42;;;;;;;2.92;0.70;;;;;;;24.39;43.19;100766.72;6093977;23;20022;-71
2023/06/27 11:28:09;;;;;;;1.40;0.60;;;;;;;24.40;43.19;100768.44;6093450;23;20084;-71
2023/06/27 11:30:38;;;;;;;1.75;0.77;;;;;;;24.37;42.86;100764.19;6093821;23;20467;-71